AirNav   ATP
 
 1470 users online  

GA2 Alexander Memorial Airport
Williamson, Georgia, USA

GOING TO WILLIAMSON?


FAA INFORMATION EFFECTIVE 16 AUGUST 2018

Location

FAA Identifier: GA2
Lat/Long: 33-11-00.4310N / 084-22-17.7250W
33-11.007183N / 084-22.295417W
33.1834531 / -84.3715903
(estimated)
Elevation: 926 ft. / 282 m (estimated)
Variation: 02W (1985)
From city: 1 mile W of WILLIAMSON, GA
Time zone: UTC -4 (UTC -5 during Standard Time)
Zip code: 30292

Airport Operations

Airport use: Open to the public
Activation date: 07/1967
Control tower: no
ARTCC: ATLANTA CENTER
FSS: MACON FLIGHT SERVICE STATION
NOTAMs facility: MCN (NOTAM-D service available)
Attendance: 0900-1800
Wind indicator: yes
Segmented circle: no

Airport Communications

CTAF/UNICOM: 122.725
WX AWOS-3 at 6A2 (6 nm NE): 119.750 (770-227-3934)
WX AWOS-3 at HMP (13 nm N): 124.825 (770-707-1719)
WX ASOS at FFC (15 nm NW): 118.525 (770-487-1610)
WX AWOS-3 at OPN (15 nm S): 133.975 (706-646-4123)

Nearby radio navigation aids

VOR radial/distance  VOR name  Freq  Var
ATLr178/26.9ATLANTA VORTAC116.9005W

 
NDB name  Hdg/Dist  Freq  Var  ID
PECAT146/9.131605WFFC ..-. ..-. -.-.
COWETA COUNTY107/17.723403WEQQ . --.- --.-
PINE MOUNTAIN054/32.527203WPIM .--. .. --
ALCOVY231/39.937003WVOF ...- --- ..-.

Airport Services

Fuel available: 100LL
Parking: hangars and tiedowns
Airframe service: MAJOR
Powerplant service: MINOR
Bottled oxygen: NONE
Bulk oxygen: NONE

Runway Information

Runway 13/31

Dimensions: 2400 x 100 ft. / 732 x 30 m
Surface: turf, in fair condition
Runway edge markings: & 31 THLDS MARKED BY TIRES.
RUNWAY 13  RUNWAY 31
Traffic pattern: rightleft
Markings: NSTD
Runway end identifier lights: nono
Obstructions: 40 ft. trees, 100 ft. right of centerline30 ft. fence, 150 ft. from runway, 150 ft. right of centerline, 5:1 slope to clear

Airport Ownership and Management from official FAA records

Ownership: Privately-owned
Owner: RON ALEXANDER
349 JONATHAN'S ROOST RD
WILLIAMSON, GA 30292
Phone 770-467-9490
Manager: RON ALEXANDER
185 JONATHAN'S ROOST RD
WILLIAMSON, GA 30292
Phone 770-467-9490
FBO 770-227-9989.

Airport Operational Statistics

Aircraft based on the field: 21
Single engine airplanes: 20
Multi engine airplanes: 1
    
Aircraft operations: avg 67/week *
79% local general aviation
21% transient general aviation
* for 12-month period ending 12 January 2000

Additional Remarks

FOR CTC FBO AT 770-227-9989.

Instrument Procedures

There are no published instrument procedures at GA2.

Some nearby airports with instrument procedures:

6A2 - Griffin-Spalding County Airport (6 nm NE)
KHMP - Henry County Airport (13 nm N)
KFFC - Atlanta Regional Airport-Falcon Field (15 nm NW)
KOPN - Thomaston-Upson County Airport (15 nm S)
KCCO - Newnan Coweta County Airport (21 nm W)
 
Loc | Ops | Rwys | IFR | FBO | Links
Com | Nav | Svcs | Stats | Notes


 
Area around GA2 (Alexander Memorial Airport)
 
Road maps at: MapQuest Bing Google
 
Aerial photo
WARNING: Photo may not be current or correct
Aerial photo of GA2 (Alexander Memorial Airport)
Photo by J. Michael
Photo taken 12-Jul-2008

Do you have a better or more recent aerial photo of Alexander Memorial Airport that you would like to share? If so, please send us your photo.

 
Sectional chart

 
Airport distance calculator
Flying to Alexander Memorial Airport? Find the distance to fly.

From to GA2

Sunrise and sunset
Times for 17-Aug-2018
 Local
(UTC-4)
 Zulu
(UTC)
Morning civil twilight06:3710:37
Sunrise07:0311:03
Sunset20:2000:20
Evening civil twilight20:4600:46

Current date and time
Zulu (UTC)  17-Aug-2018 15:03:27
Local (UTC-4)  17-Aug-2018 11:03:27
 
METAR
K6A2 
6nm NE 
171455Z AUTO 24005KT 10SM SCT018 SCT023 SCT031 27/22 A3022 RMK AO2
KHMP 
13nm N 
171455Z AUTO 26005KT 10SM BKN012 OVC020 25/21 A3022 RMK AO2 T02500205
KFFC 
14nm NW 
171453Z AUTO VRB04KT 10SM SCT015 BKN020 27/22 A3022 RMK AO2 SLP225 T02670222 55002
KOPN 
15nm S 
171455Z AUTO 20003KT 10SM BKN012 OVC019 26/21 A3023 RMK AO2 LTG DSNT E THRU SW
TAF
KATL 
27nm N 
171356Z 1714/1818 23008KT P6SM BKN015 FM171800 23010KT P6SM VCSH BKN050 TEMPO 1719/1723 4SM TSRA BKN030CB FM180100 22007KT P6SM VCSH SCT060 BKN250 FM180800 22006KT P6SM BKN009 FM181400 25008KT P6SM BKN025
NOTAMs
Click for the latest NOTAMs
NOTAMs are issued by the DoD/FAA and will open in a separate window not controlled by AirNav.

 

 
 

FBO, Fuel Providers, and Aircraft Ground Support

  
 Business Name 
 
 Contact 
 
 Services / Description 
 
Fuel Prices
 
Comments
  
Peach State Aerodrome 770-467-8318
405-406-6313
[web site]
[email]
Aviation fuel, Aircraft parking (ramp or tiedown), Hangar leasing / sales, Flight training, Aircraft maintenance, Aviation museum, Internet access, Restrooms, Restaurant

More info about Peach State Aerodrome
independent
100LL
SS $4.05 
 Updated 06-Aug-2018
 
   2 read write
SS=Self service
Update Fuel Prices
 

Would you like to see your business listed on this page?

 If your business provides an interesting product or service to pilots, flight crews, aircraft, or users of the Alexander Memorial Airport, you should consider listing it here.  To start the listing process, click on the button below
 
Add a business
 

Other Pages about Alexander Memorial Airport

Update a link
 
Copyright © AirNav, LLC. All rights reserved. Privacy Policy  Contact